createdAt,value
2019-01-19T00:02:27.019Z,2.80
2019-01-19T00:05:14.637Z,2.80
2019-01-19T00:08:22.724Z,2.77
2019-01-19T00:11:04.671Z,2.44
2019-01-19T00:14:12.723Z,2.54
2019-01-19T00:17:20.043Z,2.81
2019-01-19T00:20:16.766Z,2.43
2019-01-19T00:23:24.831Z,2.51
2019-01-19T00:26:25.079Z,2.55
2019-01-19T00:29:01.023Z,2.50
2019-01-19T00:32:08.274Z,2.85
2019-01-19T00:34:50.619Z,2.70
2019-01-19T00:37:57.963Z,3.06
2019-01-19T00:41:05.222Z,3.20
2019-01-19T00:44:12.524Z,3.11
2019-01-19T00:47:19.879Z,3.05
2019-01-19T00:49:59.454Z,3.07
2019-01-19T00:52:50.758Z,3.07
2019-01-19T00:55:58.847Z,3.02
2019-01-19T00:59:06.057Z,2.74
2019-01-19T01:02:06.735Z,2.76
2019-01-19T01:05:13.895Z,2.94
2019-01-19T01:08:21.042Z,3.01
2019-01-19T01:11:28.317Z,3.00
2019-01-19T01:14:38.718Z,2.48
2019-01-19T01:17:31.039Z,2.95
2019-01-19T01:20:39.095Z,3.22
2019-01-19T01:23:46.412Z,2.74
2019-01-19T01:26:53.713Z,2.69
2019-01-19T01:30:01.023Z,2.49
2019-01-19T01:32:35.999Z,2.69
2019-01-19T01:35:43.262Z,2.58
2019-01-19T01:38:50.504Z,2.82
2019-01-19T01:41:57.754Z,2.85
2019-01-19T01:44:48.799Z,3.13
2019-01-19T01:47:56.057Z,3.25
2019-01-19T01:50:56.816Z,2.89
2019-01-19T01:54:04.074Z,2.70
2019-01-19T01:56:32.497Z,3.02
2019-01-19T01:59:40.548Z,3.01
2019-01-19T02:02:50.772Z,3.12
2019-01-19T02:05:51.887Z,2.98
2019-01-19T02:12:39.595Z,2.72
2019-01-19T02:15:34.244Z,2.66
2019-01-19T02:18:27.198Z,2.49
2019-01-19T02:21:35.252Z,2.75
2019-01-19T02:24:42.559Z,3.00
2019-01-19T02:27:50.624Z,3.00
2019-01-19T02:30:57.824Z,2.73
2019-01-19T02:34:05.894Z,3.22
2019-01-19T02:37:13.060Z,3.35
2019-01-19T02:40:13.300Z,3.20
2019-01-19T02:43:20.561Z,3.41
2019-01-19T02:46:27.975Z,3.37
2019-01-19T02:49:36.471Z,3.47
2019-01-19T02:52:31.225Z,3.09
2019-01-19T02:55:39.179Z,2.90
2019-01-19T03:02:07.251Z,3.18
2019-01-19T03:04:57.533Z,2.85
2019-01-19T03:07:49.530Z,3.02
2019-01-19T03:10:57.574Z,3.26
2019-01-19T03:13:54.662Z,3.32
2019-01-19T03:16:53.015Z,3.15
2019-01-19T03:20:00.309Z,3.49
2019-01-19T03:22:53.622Z,3.14
2019-01-19T03:26:00.781Z,2.99
2019-01-19T03:29:08.031Z,3.22
2019-01-19T03:32:15.189Z,3.01
2019-01-19T03:35:22.443Z,2.92
2019-01-19T03:38:26.711Z,2.80
2019-01-19T03:41:34.157Z,2.69
2019-01-19T03:44:33.539Z,2.79
2019-01-19T03:47:41.588Z,3.12
2019-01-19T03:50:48.899Z,3.11
2019-01-19T03:53:57.130Z,2.98
2019-01-19T03:57:13.297Z,2.85
2019-01-19T04:00:20.708Z,3.12
2019-01-19T04:03:28.769Z,3.18
2019-01-19T04:06:36.021Z,2.97
2019-01-19T04:09:48.297Z,2.93
2019-01-19T04:12:55.652Z,2.51
2019-01-19T04:16:03.016Z,2.88
2019-01-19T04:19:10.364Z,3.15
2019-01-19T04:22:17.623Z,3.22
2019-01-19T04:25:00.473Z,2.83
2019-01-19T04:27:29.016Z,2.97
2019-01-19T04:29:57.636Z,3.30
2019-01-19T04:32:26.946Z,3.12
2019-01-19T04:34:56.262Z,3.03
2019-01-19T04:37:25.612Z,3.10
2019-01-19T04:39:54.927Z,3.13
2019-01-19T04:42:23.663Z,3.22
2019-01-19T04:44:52.180Z,3.21
2019-01-19T04:47:21.505Z,3.22
2019-01-19T04:49:50.025Z,2.96
2019-01-19T04:52:18.561Z,3.16
2019-01-19T04:54:48.497Z,3.20
2019-01-19T04:57:37.188Z,2.83
2019-01-19T05:03:10.743Z,2.69
2019-01-19T05:05:39.258Z,2.69
2019-01-19T05:08:08.587Z,2.81
2019-01-19T05:10:37.909Z,2.93
2019-01-19T05:13:07.236Z,2.82
2019-01-19T05:15:36.560Z,2.78
2019-01-19T05:23:43.099Z,2.81
2019-01-19T05:26:11.623Z,2.94
2019-01-19T05:28:40.957Z,3.19
2019-01-19T05:31:10.282Z,3.18
2019-01-19T05:33:39.619Z,3.11
2019-01-19T05:36:08.925Z,3.16
2019-01-19T05:38:38.253Z,3.04
2019-01-19T05:41:07.592Z,3.14
2019-01-19T05:43:37.129Z,3.15
2019-01-19T05:46:06.557Z,3.11
2019-01-19T05:48:35.083Z,3.20
2019-01-19T05:51:04.409Z,3.35
2019-01-19T05:53:32.939Z,3.18
2019-01-19T05:56:02.263Z,3.20
2019-01-19T05:58:31.594Z,3.11
2019-01-19T06:01:00.111Z,3.12
2019-01-19T06:03:29.464Z,3.23
2019-01-19T06:05:59.117Z,3.38
2019-01-19T06:08:28.451Z,3.20
2019-01-19T06:10:57.774Z,3.15
2019-01-19T06:13:26.300Z,2.99
2019-01-19T06:15:54.920Z,3.09
2019-01-19T06:18:23.494Z,3.15
2019-01-19T06:20:52.973Z,3.27
2019-01-19T06:23:22.503Z,3.19
2019-01-19T06:25:51.023Z,3.17
2019-01-19T06:28:20.429Z,3.23
2019-01-19T06:30:49.739Z,3.18
2019-01-19T06:33:18.262Z,3.24
2019-01-19T06:35:46.694Z,3.52
2019-01-19T06:38:16.045Z,3.42
2019-01-19T06:40:45.372Z,3.30
2019-01-19T06:43:14.692Z,3.43
2019-01-19T06:45:44.032Z,3.46
2019-01-19T06:48:13.342Z,3.48
2019-01-19T06:50:42.674Z,3.55
2019-01-19T06:53:12.005Z,3.51
2019-01-19T06:55:41.364Z,3.56
2019-01-19T06:58:09.988Z,3.38
2019-01-19T07:00:38.600Z,3.20
2019-01-19T07:03:07.938Z,3.11
2019-01-19T07:05:37.273Z,3.23
2019-01-19T07:08:06.590Z,3.33
2019-01-19T07:10:35.915Z,3.43
2019-01-19T07:13:05.337Z,3.49
2019-01-19T07:15:34.649Z,3.66
2019-01-19T07:18:04.012Z,3.63
2019-01-19T07:20:32.557Z,3.64
2019-01-19T07:23:01.906Z,3.68
2019-01-19T07:25:30.436Z,3.77
2019-01-19T07:27:59.795Z,3.72
2019-01-19T07:30:29.122Z,3.64
2019-01-19T07:32:58.890Z,3.78
2019-01-19T07:35:28.320Z,4.00
2019-01-19T07:37:57.650Z,4.02
2019-01-19T07:40:27.019Z,4.17
2019-01-19T07:45:54.870Z,3.99
2019-01-19T07:48:24.204Z,4.02
2019-01-19T07:50:53.560Z,4.02
2019-01-19T07:53:22.292Z,3.97
2019-01-19T07:55:51.724Z,3.99
2019-01-19T08:01:04.282Z,4.10
2019-01-19T08:06:36.856Z,4.27
2019-01-19T08:09:10.262Z,4.34
2019-01-19T08:11:39.703Z,4.45
2019-01-19T08:14:09.043Z,4.45
2019-01-19T08:16:38.489Z,4.47
2019-01-19T08:19:06.972Z,4.49
2019-01-19T08:21:35.588Z,4.48
2019-01-19T08:24:04.175Z,4.44
2019-01-19T08:26:33.508Z,4.44
2019-01-19T08:31:46.035Z,4.54
2019-01-19T08:34:15.356Z,4.56
2019-01-19T08:36:43.878Z,4.56
2019-01-19T08:39:13.222Z,4.68
2019-01-19T08:41:42.713Z,4.64
2019-01-19T08:44:12.029Z,4.71
2019-01-19T08:46:41.351Z,4.81
2019-01-19T08:49:10.683Z,4.72
2019-01-19T08:51:39.811Z,4.86
2019-01-19T08:54:10.022Z,4.96
2019-01-19T08:56:38.558Z,5.05
2019-01-19T08:59:07.089Z,5.03
2019-01-19T09:01:36.406Z,5.10
2019-01-19T09:04:05.570Z,5.28
2019-01-19T09:06:35.700Z,5.41
2019-01-19T09:12:10.617Z,5.52
2019-01-19T09:14:40.987Z,5.61
2019-01-19T09:17:11.006Z,5.67
2019-01-19T09:19:40.538Z,5.74
2019-01-19T09:22:29.496Z,5.95
2019-01-19T09:24:58.847Z,5.95
2019-01-19T09:27:27.373Z,5.90
2019-01-19T09:29:56.738Z,6.01
2019-01-19T09:32:25.397Z,6.07
2019-01-19T09:34:54.740Z,6.13
2019-01-19T09:37:24.077Z,6.14
2019-01-19T09:39:52.610Z,6.14
2019-01-19T09:42:21.052Z,6.23
2019-01-19T09:44:50.375Z,6.37
2019-01-19T09:47:18.918Z,6.49
2019-01-19T09:49:48.255Z,6.57
2019-01-19T09:52:21.301Z,6.74
2019-01-19T09:54:48.029Z,6.79
2019-01-19T09:57:16.562Z,6.79
2019-01-19T09:59:45.878Z,9.95
2019-01-19T10:02:14.406Z,9.37
2019-01-19T10:04:43.736Z,8.38
2019-01-19T10:07:12.500Z,7.88
2019-01-19T10:09:42.305Z,7.54
2019-01-19T10:12:10.971Z,7.36
2019-01-19T10:14:40.737Z,7.33
2019-01-19T10:17:10.095Z,7.20
2019-01-19T10:19:39.432Z,7.18
2019-01-19T10:22:08.884Z,7.15
2019-01-19T10:24:38.219Z,7.50
2019-01-19T10:27:07.561Z,7.55
2019-01-19T10:29:36.204Z,7.55
2019-01-19T10:32:04.646Z,7.59
2019-01-19T10:34:33.175Z,7.61
2019-01-19T10:37:02.619Z,7.55
2019-01-19T10:39:31.950Z,7.82
2019-01-19T10:42:01.276Z,7.84
2019-01-19T10:44:29.813Z,7.90
2019-01-19T10:46:58.339Z,7.82
2019-01-19T10:49:26.868Z,8.23
2019-01-19T10:51:59.452Z,8.39
2019-01-19T10:54:45.566Z,8.56
2019-01-19T10:57:14.898Z,8.70
2019-01-19T10:59:44.246Z,8.70
2019-01-19T11:02:13.576Z,8.76
2019-01-19T11:04:43.066Z,8.53
2019-01-19T11:07:12.523Z,8.88
2019-01-19T11:09:41.862Z,8.94
2019-01-19T11:12:10.400Z,8.96
2019-01-19T11:14:39.796Z,9.13
2019-01-19T11:17:09.136Z,9.07
2019-01-19T11:19:38.479Z,8.61
2019-01-19T11:22:07.231Z,8.33
2019-01-19T11:24:35.757Z,8.66
2019-01-19T11:27:05.104Z,8.24
2019-01-19T11:29:34.432Z,7.86
2019-01-19T11:32:04.022Z,7.78
2019-01-19T11:34:33.359Z,7.66
2019-01-19T11:37:01.844Z,7.64
2019-01-19T11:39:30.471Z,7.63
2019-01-19T11:41:59.794Z,7.64
2019-01-19T11:44:28.245Z,7.55
2019-01-19T11:46:57.658Z,7.52
2019-01-19T11:49:26.997Z,7.53
2019-01-19T11:51:56.360Z,7.52
2019-01-19T11:54:25.883Z,7.55
2019-01-19T11:56:54.415Z,7.59
2019-01-19T11:59:23.755Z,7.63
2019-01-19T12:01:53.088Z,7.87
2019-01-19T12:04:21.520Z,7.67
2019-01-19T12:06:49.937Z,7.63
2019-01-19T12:09:18.479Z,8.28
2019-01-19T12:11:47.869Z,9.04
2019-01-19T12:14:17.206Z,9.55
2019-01-19T12:16:46.523Z,9.99
2019-01-19T12:19:15.857Z,10.30
2019-01-19T12:21:44.862Z,10.59
2019-01-19T12:24:13.513Z,10.77
2019-01-19T12:26:42.052Z,10.00
2019-01-19T12:29:10.488Z,10.33
2019-01-19T12:31:39.129Z,10.57
2019-01-19T12:34:08.485Z,10.19
2019-01-19T12:36:36.911Z,10.30
2019-01-19T12:39:07.683Z,10.13
2019-01-19T12:41:36.324Z,10.39
2019-01-19T12:44:06.526Z,10.00
2019-01-19T12:46:35.073Z,9.64
2019-01-19T12:49:04.802Z,9.09
2019-01-19T12:51:33.345Z,9.72
2019-01-19T12:54:02.784Z,9.76
2019-01-19T12:56:31.316Z,8.75
2019-01-19T12:59:00.667Z,8.49
2019-01-19T13:01:30.005Z,8.27
2019-01-19T13:03:59.448Z,8.22
2019-01-19T13:07:07.498Z,7.95
2019-01-19T13:09:39.459Z,7.80
2019-01-19T13:12:31.400Z,7.75
2019-01-19T13:15:49.224Z,7.81
2019-01-19T13:18:57.894Z,7.80
2019-01-19T13:22:05.231Z,7.79
2019-01-19T13:24:57.724Z,7.78
2019-01-19T13:28:04.972Z,7.73
2019-01-19T13:31:12.136Z,7.75
2019-01-19T13:34:19.557Z,7.75
2019-01-19T13:37:14.969Z,7.78
2019-01-19T13:40:07.215Z,7.74
2019-01-19T13:43:10.275Z,7.75
2019-01-19T13:46:01.412Z,7.75
2019-01-19T13:49:09.460Z,7.72
2019-01-19T13:52:09.413Z,7.75
2019-01-19T13:55:16.597Z,7.75
2019-01-19T13:58:16.413Z,7.73
2019-01-19T14:01:24.462Z,7.70
2019-01-19T14:04:31.819Z,7.69
2019-01-19T14:07:34.249Z,7.71
2019-01-19T14:10:30.528Z,7.73
2019-01-19T14:13:37.784Z,7.73
2019-01-19T14:16:45.143Z,7.71
2019-01-19T14:19:52.452Z,7.73
2019-01-19T14:23:00.516Z,7.72
2019-01-19T14:26:07.660Z,7.72
2019-01-19T14:29:14.906Z,7.72
2019-01-19T14:32:22.230Z,7.69
2019-01-19T14:35:29.545Z,7.65
2019-01-19T14:38:33.848Z,7.65
2019-01-19T14:41:36.437Z,7.67
2019-01-19T14:44:44.488Z,7.65
2019-01-19T14:47:51.743Z,7.66
2019-01-19T14:50:59.013Z,7.64
2019-01-19T14:53:54.152Z,7.65
2019-01-19T14:56:53.957Z,7.64
2019-01-19T14:59:30.848Z,7.62
2019-01-19T15:02:38.899Z,7.56
2019-01-19T15:05:30.608Z,7.52
2019-01-19T15:08:25.353Z,7.46
2019-01-19T15:11:26.435Z,7.50
2019-01-19T15:14:33.958Z,7.34
2019-01-19T15:17:30.644Z,7.39
2019-01-19T15:20:31.501Z,7.40
2019-01-19T15:23:39.556Z,7.41
2019-01-19T15:26:46.806Z,7.45
2019-01-19T15:29:53.980Z,7.36
2019-01-19T15:32:46.820Z,7.42
2019-01-19T15:35:54.164Z,7.35
2019-01-19T15:38:53.222Z,7.34
2019-01-19T15:42:00.469Z,7.38
2019-01-19T15:45:07.722Z,7.42
2019-01-19T15:48:15.190Z,7.39
2019-01-19T15:51:14.090Z,7.37
2019-01-19T15:54:22.198Z,7.35
2019-01-19T15:57:30.255Z,7.33
2019-01-19T16:00:26.712Z,7.31
2019-01-19T16:03:34.431Z,7.31
2019-01-19T16:06:43.591Z,7.34
2019-01-19T16:09:50.758Z,7.27
2019-01-19T16:12:46.101Z,7.24
2019-01-19T16:15:47.307Z,7.22
2019-01-19T16:18:55.434Z,7.03
2019-01-19T16:22:02.797Z,6.99
2019-01-19T16:25:10.147Z,6.90
2019-01-19T16:28:17.563Z,6.94
2019-01-19T16:31:25.621Z,6.86
2019-01-19T16:34:32.984Z,6.93
2019-01-19T16:37:40.241Z,6.93
2019-01-19T16:40:47.671Z,6.84
2019-01-19T16:43:39.194Z,6.70
2019-01-19T16:46:31.092Z,6.74
2019-01-19T16:49:14.752Z,6.77
2019-01-19T16:52:22.828Z,6.61
2019-01-19T16:55:30.504Z,6.56
2019-01-19T16:58:37.771Z,6.55
2019-01-19T17:01:45.031Z,6.53
2019-01-19T17:04:55.350Z,6.49
2019-01-19T17:08:03.408Z,6.50
2019-01-19T17:11:10.769Z,6.44
2019-01-19T17:14:18.019Z,6.41
2019-01-19T17:17:03.350Z,6.44
2019-01-19T17:20:10.670Z,6.39
2019-01-19T17:23:18.801Z,6.36
2019-01-19T17:26:02.818Z,6.34
2019-01-19T17:29:10.158Z,6.36
2019-01-19T17:31:48.194Z,6.31
2019-01-19T17:34:40.355Z,6.30
2019-01-19T17:37:48.412Z,6.37
2019-01-19T17:40:55.665Z,6.39
2019-01-19T17:44:03.078Z,6.27
2019-01-19T17:47:11.134Z,6.25
2019-01-19T17:50:18.378Z,6.28
2019-01-19T17:53:18.875Z,6.18
2019-01-19T17:56:26.189Z,6.12
2019-01-19T17:59:27.234Z,6.20
2019-01-19T18:02:34.586Z,6.17
2019-01-19T18:05:41.839Z,6.11
2019-01-19T18:08:49.295Z,6.22
2019-01-19T18:11:56.700Z,6.22
2019-01-19T18:15:04.746Z,6.15
2019-01-19T18:17:57.544Z,6.06
2019-01-19T18:21:04.747Z,5.94
2019-01-19T18:23:52.770Z,6.15
2019-01-19T18:26:53.552Z,6.04
2019-01-19T18:30:01.596Z,5.82
2019-01-19T18:33:08.866Z,6.00
2019-01-19T18:36:16.123Z,5.97
2019-01-19T18:39:20.497Z,5.82
2019-01-19T18:42:27.746Z,5.81
2019-01-19T18:45:35.054Z,5.73
2019-01-19T18:48:27.990Z,5.85
2019-01-19T18:51:36.165Z,5.82
2019-01-19T18:54:37.350Z,5.86
2019-01-19T18:57:45.398Z,5.80
2019-01-19T19:00:34.649Z,5.62
2019-01-19T19:03:42.758Z,5.51
2019-01-19T19:06:50.036Z,5.40
2019-01-19T19:09:38.129Z,5.53
2019-01-19T19:12:46.177Z,5.70
2019-01-19T19:15:55.277Z,5.56
2019-01-19T19:18:46.126Z,5.70
2019-01-19T19:21:42.045Z,5.66
2019-01-19T19:24:49.340Z,5.72
2019-01-19T19:27:56.541Z,5.59
2019-01-19T19:31:03.860Z,5.72
2019-01-19T19:34:11.217Z,5.48
2019-01-19T19:37:18.566Z,5.52
2019-01-19T19:40:19.088Z,5.62
2019-01-19T19:43:27.137Z,5.48
2019-01-19T19:46:28.096Z,5.52
2019-01-19T19:49:36.221Z,5.64
2019-01-19T19:52:05.827Z,5.55
2019-01-19T19:54:35.325Z,5.40
2019-01-19T19:57:04.394Z,5.34
2019-01-19T19:59:32.909Z,5.45
2019-01-19T20:02:02.242Z,5.35
2019-01-19T20:07:33.958Z,5.47
2019-01-19T20:13:05.319Z,5.51
2019-01-19T20:15:34.646Z,5.43
2019-01-19T20:18:04.357Z,5.45
2019-01-19T20:20:33.718Z,5.57
2019-01-19T20:23:03.161Z,5.39
2019-01-19T20:25:32.475Z,5.47
2019-01-19T20:28:01.907Z,5.47
2019-01-19T20:30:31.240Z,5.45
2019-01-19T20:33:00.595Z,5.45
2019-01-19T20:35:29.224Z,5.56
2019-01-19T20:37:57.873Z,5.51
2019-01-19T20:40:26.410Z,5.46
2019-01-19T20:42:55.736Z,5.45
2019-01-19T20:45:25.061Z,5.56
2019-01-19T20:47:54.385Z,5.53
2019-01-19T20:50:23.709Z,5.44
2019-01-19T20:52:53.048Z,5.55
2019-01-19T20:55:22.493Z,5.37
2019-01-19T20:57:51.830Z,5.32
2019-01-19T21:00:21.439Z,5.28
2019-01-19T21:02:49.967Z,5.32
2019-01-19T21:05:19.300Z,5.21
2019-01-19T21:07:48.664Z,5.33
2019-01-19T21:10:17.986Z,5.23
2019-01-19T21:12:47.327Z,5.24
2019-01-19T21:15:16.760Z,5.24
2019-01-19T21:17:46.076Z,5.21
2019-01-19T21:20:15.413Z,5.17
2019-01-19T21:22:44.818Z,5.25
2019-01-19T21:25:14.375Z,5.14
2019-01-19T21:27:43.699Z,5.27
2019-01-19T21:30:12.843Z,5.25
2019-01-19T21:32:41.463Z,5.22
2019-01-19T21:35:11.201Z,5.24
2019-01-19T21:37:40.525Z,5.27
2019-01-19T21:43:12.757Z,5.23
2019-01-19T21:45:42.077Z,5.35
2019-01-19T21:48:10.605Z,5.28
2019-01-19T21:50:40.036Z,5.15
2019-01-19T21:53:09.368Z,5.29
2019-01-19T21:55:38.790Z,5.16
2019-01-19T21:58:08.111Z,5.15
2019-01-19T22:00:37.431Z,5.20
2019-01-19T22:03:06.770Z,5.18
2019-01-19T22:05:35.183Z,5.12
2019-01-19T22:08:04.605Z,5.16
2019-01-19T22:10:33.243Z,5.14
2019-01-19T22:13:02.569Z,5.23
2019-01-19T22:15:31.896Z,5.31
2019-01-19T22:18:01.221Z,5.07
2019-01-19T22:20:30.581Z,4.97
2019-01-19T22:22:59.930Z,5.02
2019-01-19T22:25:29.263Z,4.84
2019-01-19T22:27:58.589Z,5.03
2019-01-19T22:30:27.921Z,5.02
2019-01-19T22:32:57.358Z,4.98
2019-01-19T22:38:22.982Z,5.18
2019-01-19T22:40:53.737Z,5.01
2019-01-19T22:43:41.536Z,5.01
2019-01-19T22:46:10.939Z,5.12
2019-01-19T22:48:40.270Z,4.94
2019-01-19T22:51:11.310Z,5.07
2019-01-19T22:53:58.820Z,5.00
2019-01-19T22:56:28.147Z,5.21
2019-01-19T22:58:56.571Z,5.13
2019-01-19T23:02:04.629Z,5.04
2019-01-19T23:04:33.138Z,5.21
2019-01-19T23:07:02.466Z,5.21
2019-01-19T23:09:31.783Z,5.16
2019-01-19T23:12:01.207Z,5.18
2019-01-19T23:14:31.432Z,5.17
2019-01-19T23:16:59.861Z,5.23
2019-01-19T23:19:29.306Z,5.17
2019-01-19T23:21:58.605Z,5.27
2019-01-19T23:24:27.933Z,5.07
2019-01-19T23:27:16.706Z,5.16
2019-01-19T23:29:45.434Z,5.21
2019-01-19T23:32:14.755Z,5.13
2019-01-19T23:34:44.076Z,5.08
2019-01-19T23:37:13.398Z,5.10
2019-01-19T23:39:42.751Z,5.13
2019-01-19T23:42:11.160Z,5.20
2019-01-19T23:44:39.688Z,5.34
2019-01-19T23:47:09.013Z,5.27
2019-01-19T23:49:38.344Z,5.00
2019-01-19T23:52:07.771Z,4.97
2019-01-19T23:54:37.109Z,5.10
2019-01-19T23:57:06.430Z,5.09
2019-01-19T23:59:34.853Z,4.99
